sensor_id;sensor_type;location;lat;lon;timestamp;P1;durP1;ratioP1;P2;durP2;ratioP2
12429;SDS011;6279;42.192;24.326;2024-01-10T00:02:00;21.10;;;14.20;;
12429;SDS011;6279;42.192;24.326;2024-01-10T00:04:26;18.27;;;13.50;;
12429;SDS011;6279;42.192;24.326;2024-01-10T00:06:51;17.90;;;12.40;;
12429;SDS011;6279;42.192;24.326;2024-01-10T00:09:17;23.53;;;15.90;;
12429;SDS011;6279;42.192;24.326;2024-01-10T00:11:42;21.80;;;14.77;;
12429;SDS011;6279;42.192;24.326;2024-01-10T00:14:08;20.47;;;12.83;;
12429;SDS011;6279;42.192;24.326;2024-01-10T00:16:34;22.13;;;13.27;;
12429;SDS011;6279;42.192;24.326;2024-01-10T00:18:59;19.47;;;14.50;;
12429;SDS011;6279;42.192;24.326;2024-01-10T00:21:25;20.73;;;13.83;;
12429;SDS011;6279;42.192;24.326;2024-01-10T00:23:52;21.57;;;14.73;;
12429;SDS011;6279;42.192;24.326;2024-01-10T00:26:19;18.50;;;13.13;;
12429;SDS011;6279;42.192;24.326;2024-01-10T00:28:44;19.13;;;12.93;;
12429;SDS011;6279;42.192;24.326;2024-01-10T00:31:12;17.30;;;11.53;;
12429;SDS011;6279;42.192;24.326;2024-01-10T00:33:38;20.03;;;12.80;;
12429;SDS011;6279;42.192;24.326;2024-01-10T00:36:04;16.33;;;11.50;;
12429;SDS011;6279;42.192;24.326;2024-01-10T00:38:30;19.87;;;12.60;;
12429;SDS011;6279;42.192;24.326;2024-01-10T00:40:55;17.37;;;12.23;;
12429;SDS011;6279;42.192;24.326;2024-01-10T00:43:21;23.50;;;16.13;;
12429;SDS011;6279;42.192;24.326;2024-01-10T00:45:46;18.80;;;13.20;;
12429;SDS011;6279;42.192;24.326;2024-01-10T00:48:12;17.60;;;11.40;;
12429;SDS011;6279;42.192;24.326;2024-01-10T00:50:37;15.67;;;11.17;;
12429;SDS011;6279;42.192;24.326;2024-01-10T00:53:03;13.07;;;9.50;;
12429;SDS011;6279;42.192;24.326;2024-01-10T00:55:28;16.60;;;11.10;;
12429;SDS011;6279;42.192;24.326;2024-01-10T00:57:53;21.37;;;12.93;;
12429;SDS011;6279;42.192;24.326;2024-01-10T01:00:19;22.83;;;14.20;;
12429;SDS011;6279;42.192;24.326;2024-01-10T01:02:44;26.03;;;14.27;;
12429;SDS011;6279;42.192;24.326;2024-01-10T01:05:10;21.93;;;14.60;;
12429;SDS011;6279;42.192;24.326;2024-01-10T01:07:35;22.67;;;13.77;;
12429;SDS011;6279;42.192;24.326;2024-01-10T01:10:01;19.83;;;12.80;;
12429;SDS011;6279;42.192;24.326;2024-01-10T01:12:26;17.93;;;12.10;;
12429;SDS011;6279;42.192;24.326;2024-01-10T01:14:52;19.23;;;12.17;;
12429;SDS011;6279;42.192;24.326;2024-01-10T01:17:17;15.50;;;11.07;;
12429;SDS011;6279;42.192;24.326;2024-01-10T01:19:42;17.03;;;11.07;;
12429;SDS011;6279;42.192;24.326;2024-01-10T01:22:08;16.70;;;11.13;;
12429;SDS011;6279;42.192;24.326;2024-01-10T01:24:33;13.10;;;9.80;;
12429;SDS011;6279;42.192;24.326;2024-01-10T01:26:59;15.57;;;10.70;;
12429;SDS011;6279;42.192;24.326;2024-01-10T01:29:24;13.20;;;9.30;;
12429;SDS011;6279;42.192;24.326;2024-01-10T01:31:50;15.63;;;10.07;;
12429;SDS011;6279;42.192;24.326;2024-01-10T01:34:15;13.10;;;10.20;;
12429;SDS011;6279;42.192;24.326;2024-01-10T01:36:41;14.40;;;10.33;;
12429;SDS011;6279;42.192;24.326;2024-01-10T01:39:06;16.93;;;10.67;;
12429;SDS011;6279;42.192;24.326;2024-01-10T01:41:31;14.23;;;9.60;;
12429;SDS011;6279;42.192;24.326;2024-01-10T01:43:57;12.77;;;9.17;;
12429;SDS011;6279;42.192;24.326;2024-01-10T01:46:22;14.70;;;9.90;;
12429;SDS011;6279;42.192;24.326;2024-01-10T01:48:48;14.03;;;10.57;;
12429;SDS011;6279;42.192;24.326;2024-01-10T01:51:14;14.73;;;9.47;;
12429;SDS011;6279;42.192;24.326;2024-01-10T01:53:42;14.17;;;10.23;;
12429;SDS011;6279;42.192;24.326;2024-01-10T01:56:09;14.63;;;10.27;;
12429;SDS011;6279;42.192;24.326;2024-01-10T01:58:37;15.77;;;10.37;;
12429;SDS011;6279;42.192;24.326;2024-01-10T02:01:05;12.73;;;9.47;;
12429;SDS011;6279;42.192;24.326;2024-01-10T02:03:31;13.37;;;10.03;;
12429;SDS011;6279;42.192;24.326;2024-01-10T02:05:58;15.80;;;9.90;;
12429;SDS011;6279;42.192;24.326;2024-01-10T02:08:25;14.63;;;9.73;;
12429;SDS011;6279;42.192;24.326;2024-01-10T02:10:51;14.70;;;10.33;;
12429;SDS011;6279;42.192;24.326;2024-01-10T02:13:16;12.77;;;9.10;;
12429;SDS011;6279;42.192;24.326;2024-01-10T02:15:43;13.77;;;9.10;;
12429;SDS011;6279;42.192;24.326;2024-01-10T02:18:08;14.50;;;9.67;;
12429;SDS011;6279;42.192;24.326;2024-01-10T02:20:37;12.70;;;8.97;;
12429;SDS011;6279;42.192;24.326;2024-01-10T02:23:03;10.37;;;8.17;;
12429;SDS011;6279;42.192;24.326;2024-01-10T02:25:29;12.60;;;8.70;;
12429;SDS011;6279;42.192;24.326;2024-01-10T02:27:54;13.70;;;9.43;;
12429;SDS011;6279;42.192;24.326;2024-01-10T02:30:19;14.33;;;9.93;;
12429;SDS011;6279;42.192;24.326;2024-01-10T02:32:45;11.50;;;8.60;;
12429;SDS011;6279;42.192;24.326;2024-01-10T02:35:10;11.90;;;8.83;;
12429;SDS011;6279;42.192;24.326;2024-01-10T02:37:35;12.53;;;9.17;;
12429;SDS011;6279;42.192;24.326;2024-01-10T02:40:01;12.80;;;8.90;;
12429;SDS011;6279;42.192;24.326;2024-01-10T02:42:27;12.37;;;8.43;;
12429;SDS011;6279;42.192;24.326;2024-01-10T02:44:53;14.93;;;8.53;;
12429;SDS011;6279;42.192;24.326;2024-01-10T02:47:18;13.10;;;9.47;;
12429;SDS011;6279;42.192;24.326;2024-01-10T02:49:44;13.13;;;8.90;;
12429;SDS011;6279;42.192;24.326;2024-01-10T02:52:09;13.23;;;9.03;;
12429;SDS011;6279;42.192;24.326;2024-01-10T02:54:34;11.93;;;8.67;;
12429;SDS011;6279;42.192;24.326;2024-01-10T02:57:00;11.27;;;8.20;;
12429;SDS011;6279;42.192;24.326;2024-01-10T02:59:25;12.63;;;8.43;;
12429;SDS011;6279;42.192;24.326;2024-01-10T03:01:50;12.10;;;8.23;;
12429;SDS011;6279;42.192;24.326;2024-01-10T03:04:16;10.30;;;7.80;;
12429;SDS011;6279;42.192;24.326;2024-01-10T03:06:41;9.17;;;6.93;;
12429;SDS011;6279;42.192;24.326;2024-01-10T03:09:07;10.50;;;7.00;;
12429;SDS011;6279;42.192;24.326;2024-01-10T03:11:32;7.40;;;6.50;;
12429;SDS011;6279;42.192;24.326;2024-01-10T03:14:18;8.40;;;6.20;;
12429;SDS011;6279;42.192;24.326;2024-01-10T03:16:43;10.80;;;6.77;;
12429;SDS011;6279;42.192;24.326;2024-01-10T03:19:09;11.17;;;7.60;;
12429;SDS011;6279;42.192;24.326;2024-01-10T03:21:35;10.20;;;7.83;;
12429;SDS011;6279;42.192;24.326;2024-01-10T03:24:01;9.57;;;6.73;;
12429;SDS011;6279;42.192;24.326;2024-01-10T03:26:27;9.90;;;6.97;;
12429;SDS011;6279;42.192;24.326;2024-01-10T03:28:53;9.37;;;6.30;;
12429;SDS011;6279;42.192;24.326;2024-01-10T03:31:19;7.47;;;6.40;;
12429;SDS011;6279;42.192;24.326;2024-01-10T03:33:44;8.70;;;6.77;;
12429;SDS011;6279;42.192;24.326;2024-01-10T03:36:15;9.87;;;6.77;;
12429;SDS011;6279;42.192;24.326;2024-01-10T03:38:41;9.77;;;7.30;;
12429;SDS011;6279;42.192;24.326;2024-01-10T03:41:07;11.33;;;7.73;;
12429;SDS011;6279;42.192;24.326;2024-01-10T03:43:32;10.37;;;7.70;;
12429;SDS011;6279;42.192;24.326;2024-01-10T03:45:58;11.53;;;7.20;;
12429;SDS011;6279;42.192;24.326;2024-01-10T03:48:23;9.37;;;7.10;;
12429;SDS011;6279;42.192;24.326;2024-01-10T03:50:49;8.90;;;6.60;;
12429;SDS011;6279;42.192;24.326;2024-01-10T03:53:15;9.00;;;6.90;;
12429;SDS011;6279;42.192;24.326;2024-01-10T03:55:40;8.77;;;6.87;;
12429;SDS011;6279;42.192;24.326;2024-01-10T03:58:06;9.20;;;6.63;;
12429;SDS011;6279;42.192;24.326;2024-01-10T04:00:31;8.50;;;6.57;;
12429;SDS011;6279;42.192;24.326;2024-01-10T04:02:57;9.17;;;6.57;;
12429;SDS011;6279;42.192;24.326;2024-01-10T04:05:22;10.53;;;7.17;;
12429;SDS011;6279;42.192;24.326;2024-01-10T04:07:50;9.20;;;7.40;;
12429;SDS011;6279;42.192;24.326;2024-01-10T04:10:16;7.83;;;5.40;;
12429;SDS011;6279;42.192;24.326;2024-01-10T04:12:41;7.90;;;5.97;;
12429;SDS011;6279;42.192;24.326;2024-01-10T04:15:11;6.57;;;4.77;;
12429;SDS011;6279;42.192;24.326;2024-01-10T04:17:37;7.30;;;5.50;;
12429;SDS011;6279;42.192;24.326;2024-01-10T04:20:03;6.73;;;5.43;;
12429;SDS011;6279;42.192;24.326;2024-01-10T04:22:29;8.13;;;5.37;;
12429;SDS011;6279;42.192;24.326;2024-01-10T04:24:57;8.37;;;5.63;;
12429;SDS011;6279;42.192;24.326;2024-01-10T04:27:23;8.00;;;5.33;;
12429;SDS011;6279;42.192;24.326;2024-01-10T04:29:49;7.60;;;5.73;;
12429;SDS011;6279;42.192;24.326;2024-01-10T04:32:14;12.10;;;6.30;;
12429;SDS011;6279;42.192;24.326;2024-01-10T04:34:40;6.97;;;5.30;;
12429;SDS011;6279;42.192;24.326;2024-01-10T04:37:05;8.80;;;6.40;;
12429;SDS011;6279;42.192;24.326;2024-01-10T04:39:32;8.43;;;6.23;;
12429;SDS011;6279;42.192;24.326;2024-01-10T04:41:58;9.67;;;6.10;;
12429;SDS011;6279;42.192;24.326;2024-01-10T04:44:23;9.00;;;6.50;;
12429;SDS011;6279;42.192;24.326;2024-01-10T04:46:49;7.70;;;5.80;;
12429;SDS011;6279;42.192;24.326;2024-01-10T04:49:14;8.27;;;6.20;;
12429;SDS011;6279;42.192;24.326;2024-01-10T04:51:40;12.80;;;8.70;;
12429;SDS011;6279;42.192;24.326;2024-01-10T04:54:05;9.57;;;6.73;;
12429;SDS011;6279;42.192;24.326;2024-01-10T04:56:31;7.57;;;5.43;;
12429;SDS011;6279;42.192;24.326;2024-01-10T04:58:56;6.87;;;5.33;;
12429;SDS011;6279;42.192;24.326;2024-01-10T05:01:21;8.20;;;5.43;;
12429;SDS011;6279;42.192;24.326;2024-01-10T05:03:47;7.20;;;5.33;;
12429;SDS011;6279;42.192;24.326;2024-01-10T05:06:12;7.83;;;4.97;;
12429;SDS011;6279;42.192;24.326;2024-01-10T05:08:38;5.60;;;4.57;;
12429;SDS011;6279;42.192;24.326;2024-01-10T05:11:03;5.50;;;4.03;;
12429;SDS011;6279;42.192;24.326;2024-01-10T05:13:29;6.30;;;4.23;;
12429;SDS011;6279;42.192;24.326;2024-01-10T05:15:54;5.07;;;3.80;;
12429;SDS011;6279;42.192;24.326;2024-01-10T05:18:20;4.07;;;3.67;;
12429;SDS011;6279;42.192;24.326;2024-01-10T05:20:46;6.40;;;4.47;;
12429;SDS011;6279;42.192;24.326;2024-01-10T05:23:11;5.17;;;4.10;;
12429;SDS011;6279;42.192;24.326;2024-01-10T05:25:37;6.00;;;4.70;;
12429;SDS011;6279;42.192;24.326;2024-01-10T05:28:02;6.57;;;4.63;;
12429;SDS011;6279;42.192;24.326;2024-01-10T05:30:28;6.87;;;4.83;;
12429;SDS011;6279;42.192;24.326;2024-01-10T05:32:53;10.07;;;5.77;;
12429;SDS011;6279;42.192;24.326;2024-01-10T05:35:18;9.47;;;7.23;;
12429;SDS011;6279;42.192;24.326;2024-01-10T05:37:44;10.17;;;7.20;;
12429;SDS011;6279;42.192;24.326;2024-01-10T05:40:09;9.40;;;7.67;;
12429;SDS011;6279;42.192;24.326;2024-01-10T05:42:35;10.43;;;7.80;;
12429;SDS011;6279;42.192;24.326;2024-01-10T05:45:03;9.30;;;7.20;;
12429;SDS011;6279;42.192;24.326;2024-01-10T05:47:28;11.67;;;7.60;;
12429;SDS011;6279;42.192;24.326;2024-01-10T05:49:54;11.43;;;9.57;;
12429;SDS011;6279;42.192;24.326;2024-01-10T05:52:20;11.90;;;9.20;;
12429;SDS011;6279;42.192;24.326;2024-01-10T05:54:47;12.47;;;8.97;;
12429;SDS011;6279;42.192;24.326;2024-01-10T05:57:13;9.77;;;8.00;;
12429;SDS011;6279;42.192;24.326;2024-01-10T05:59:39;10.47;;;8.50;;
12429;SDS011;6279;42.192;24.326;2024-01-10T06:02:04;10.07;;;8.63;;
12429;SDS011;6279;42.192;24.326;2024-01-10T06:04:30;9.73;;;7.73;;
12429;SDS011;6279;42.192;24.326;2024-01-10T06:06:59;8.43;;;6.03;;
12429;SDS011;6279;42.192;24.326;2024-01-10T06:09:25;8.97;;;5.50;;
12429;SDS011;6279;42.192;24.326;2024-01-10T06:11:51;8.00;;;4.73;;
12429;SDS011;6279;42.192;24.326;2024-01-10T06:14:16;6.67;;;4.73;;
12429;SDS011;6279;42.192;24.326;2024-01-10T06:16:42;6.20;;;5.10;;
12429;SDS011;6279;42.192;24.326;2024-01-10T06:19:07;8.10;;;5.33;;
12429;SDS011;6279;42.192;24.326;2024-01-10T06:21:33;8.27;;;5.67;;
12429;SDS011;6279;42.192;24.326;2024-01-10T06:23:58;7.33;;;5.23;;
12429;SDS011;6279;42.192;24.326;2024-01-10T06:26:24;6.73;;;4.87;;
12429;SDS011;6279;42.192;24.326;2024-01-10T06:28:49;7.13;;;5.60;;
12429;SDS011;6279;42.192;24.326;2024-01-10T06:31:15;7.43;;;5.93;;
12429;SDS011;6279;42.192;24.326;2024-01-10T06:33:40;14.60;;;9.53;;
12429;SDS011;6279;42.192;24.326;2024-01-10T06:36:06;21.50;;;13.13;;
12429;SDS011;6279;42.192;24.326;2024-01-10T06:38:31;13.73;;;10.33;;
12429;SDS011;6279;42.192;24.326;2024-01-10T06:40:56;10.63;;;8.00;;
12429;SDS011;6279;42.192;24.326;2024-01-10T06:43:22;8.07;;;6.33;;
12429;SDS011;6279;42.192;24.326;2024-01-10T06:45:48;7.20;;;5.37;;
12429;SDS011;6279;42.192;24.326;2024-01-10T06:48:14;6.77;;;5.47;;
12429;SDS011;6279;42.192;24.326;2024-01-10T06:50:39;6.00;;;4.37;;
12429;SDS011;6279;42.192;24.326;2024-01-10T06:53:05;4.93;;;3.93;;
12429;SDS011;6279;42.192;24.326;2024-01-10T06:55:30;4.13;;;3.70;;
12429;SDS011;6279;42.192;24.326;2024-01-10T06:57:56;4.47;;;3.90;;
12429;SDS011;6279;42.192;24.326;2024-01-10T07:00:21;6.23;;;4.20;;
12429;SDS011;6279;42.192;24.326;2024-01-10T07:02:47;5.17;;;3.93;;
12429;SDS011;6279;42.192;24.326;2024-01-10T07:05:14;5.07;;;4.50;;
12429;SDS011;6279;42.192;24.326;2024-01-10T07:07:39;7.87;;;5.27;;
12429;SDS011;6279;42.192;24.326;2024-01-10T07:10:05;6.47;;;5.27;;
12429;SDS011;6279;42.192;24.326;2024-01-10T07:12:34;6.80;;;4.30;;
12429;SDS011;6279;42.192;24.326;2024-01-10T07:14:59;6.80;;;5.00;;
12429;SDS011;6279;42.192;24.326;2024-01-10T07:17:25;8.90;;;6.23;;
12429;SDS011;6279;42.192;24.326;2024-01-10T07:19:50;6.63;;;5.10;;
12429;SDS011;6279;42.192;24.326;2024-01-10T07:22:16;7.10;;;5.50;;
12429;SDS011;6279;42.192;24.326;2024-01-10T07:24:45;6.60;;;5.20;;
12429;SDS011;6279;42.192;24.326;2024-01-10T07:27:11;8.27;;;5.63;;
12429;SDS011;6279;42.192;24.326;2024-01-10T07:29:37;9.97;;;5.30;;
12429;SDS011;6279;42.192;24.326;2024-01-10T07:32:02;6.77;;;5.00;;
12429;SDS011;6279;42.192;24.326;2024-01-10T07:34:28;6.37;;;4.67;;
12429;SDS011;6279;42.192;24.326;2024-01-10T07:36:54;6.30;;;4.23;;
12429;SDS011;6279;42.192;24.326;2024-01-10T07:39:21;7.00;;;5.23;;
12429;SDS011;6279;42.192;24.326;2024-01-10T07:41:47;5.47;;;3.80;;
12429;SDS011;6279;42.192;24.326;2024-01-10T07:44:15;6.63;;;4.53;;
12429;SDS011;6279;42.192;24.326;2024-01-10T07:46:40;6.10;;;4.87;;
12429;SDS011;6279;42.192;24.326;2024-01-10T07:49:05;6.13;;;4.80;;
12429;SDS011;6279;42.192;24.326;2024-01-10T07:51:31;7.93;;;5.67;;
12429;SDS011;6279;42.192;24.326;2024-01-10T07:53:57;8.17;;;5.70;;
12429;SDS011;6279;42.192;24.326;2024-01-10T07:56:24;8.77;;;5.80;;
12429;SDS011;6279;42.192;24.326;2024-01-10T07:58:49;7.60;;;5.27;;
12429;SDS011;6279;42.192;24.326;2024-01-10T08:01:17;6.83;;;5.33;;
12429;SDS011;6279;42.192;24.326;2024-01-10T08:03:43;6.87;;;4.37;;
12429;SDS011;6279;42.192;24.326;2024-01-10T08:06:08;9.07;;;5.43;;
12429;SDS011;6279;42.192;24.326;2024-01-10T08:08:35;6.90;;;4.97;;
12429;SDS011;6279;42.192;24.326;2024-01-10T08:11:01;6.30;;;5.20;;
12429;SDS011;6279;42.192;24.326;2024-01-10T08:13:27;9.00;;;5.97;;
12429;SDS011;6279;42.192;24.326;2024-01-10T08:15:52;6.70;;;5.83;;
12429;SDS011;6279;42.192;24.326;2024-01-10T08:18:21;6.43;;;5.70;;
12429;SDS011;6279;42.192;24.326;2024-01-10T08:20:46;5.00;;;4.17;;
12429;SDS011;6279;42.192;24.326;2024-01-10T08:23:11;6.77;;;4.60;;
12429;SDS011;6279;42.192;24.326;2024-01-10T08:25:37;4.50;;;4.10;;
12429;SDS011;6279;42.192;24.326;2024-01-10T08:28:03;6.13;;;4.37;;
12429;SDS011;6279;42.192;24.326;2024-01-10T08:30:28;5.10;;;3.97;;
12429;SDS011;6279;42.192;24.326;2024-01-10T08:32:54;4.57;;;4.07;;
12429;SDS011;6279;42.192;24.326;2024-01-10T08:35:19;5.03;;;4.47;;
12429;SDS011;6279;42.192;24.326;2024-01-10T08:37:45;4.93;;;3.93;;
12429;SDS011;6279;42.192;24.326;2024-01-10T08:40:11;4.37;;;3.90;;
12429;SDS011;6279;42.192;24.326;2024-01-10T08:42:40;5.87;;;4.40;;
12429;SDS011;6279;42.192;24.326;2024-01-10T08:45:07;5.00;;;4.03;;
12429;SDS011;6279;42.192;24.326;2024-01-10T08:47:34;5.53;;;4.00;;
12429;SDS011;6279;42.192;24.326;2024-01-10T08:50:01;6.23;;;4.67;;
12429;SDS011;6279;42.192;24.326;2024-01-10T08:52:30;5.57;;;3.70;;
12429;SDS011;6279;42.192;24.326;2024-01-10T08:54:56;4.30;;;3.90;;
12429;SDS011;6279;42.192;24.326;2024-01-10T08:57:21;5.27;;;4.00;;
12429;SDS011;6279;42.192;24.326;2024-01-10T08:59:47;4.50;;;3.90;;
12429;SDS011;6279;42.192;24.326;2024-01-10T09:02:12;3.47;;;3.10;;
12429;SDS011;6279;42.192;24.326;2024-01-10T09:04:37;5.60;;;4.03;;
12429;SDS011;6279;42.192;24.326;2024-01-10T09:07:03;4.13;;;3.73;;
12429;SDS011;6279;42.192;24.326;2024-01-10T09:09:28;5.20;;;4.13;;
12429;SDS011;6279;42.192;24.326;2024-01-10T09:11:54;4.00;;;3.40;;
12429;SDS011;6279;42.192;24.326;2024-01-10T09:14:19;3.67;;;3.17;;
12429;SDS011;6279;42.192;24.326;2024-01-10T09:16:45;3.70;;;3.30;;
12429;SDS011;6279;42.192;24.326;2024-01-10T09:19:11;3.20;;;2.90;;
12429;SDS011;6279;42.192;24.326;2024-01-10T09:21:36;3.33;;;2.47;;
12429;SDS011;6279;42.192;24.326;2024-01-10T09:24:02;2.87;;;2.57;;
12429;SDS011;6279;42.192;24.326;2024-01-10T09:26:33;4.43;;;3.20;;
12429;SDS011;6279;42.192;24.326;2024-01-10T09:28:59;7.40;;;4.10;;
12429;SDS011;6279;42.192;24.326;2024-01-10T09:31:24;3.80;;;3.33;;
12429;SDS011;6279;42.192;24.326;2024-01-10T09:33:50;3.40;;;2.90;;
12429;SDS011;6279;42.192;24.326;2024-01-10T09:36:15;5.33;;;4.03;;
12429;SDS011;6279;42.192;24.326;2024-01-10T09:38:40;5.03;;;3.20;;
12429;SDS011;6279;42.192;24.326;2024-01-10T09:41:06;4.07;;;3.17;;
12429;SDS011;6279;42.192;24.326;2024-01-10T09:43:31;5.33;;;3.70;;
12429;SDS011;6279;42.192;24.326;2024-01-10T09:46:00;8.37;;;5.60;;
12429;SDS011;6279;42.192;24.326;2024-01-10T09:48:27;5.63;;;4.47;;
12429;SDS011;6279;42.192;24.326;2024-01-10T09:50:53;6.07;;;3.33;;
12429;SDS011;6279;42.192;24.326;2024-01-10T09:53:24;5.23;;;4.17;;
12429;SDS011;6279;42.192;24.326;2024-01-10T09:55:53;4.77;;;3.63;;
12429;SDS011;6279;42.192;24.326;2024-01-10T09:58:22;6.27;;;4.47;;
12429;SDS011;6279;42.192;24.326;2024-01-10T10:00:50;4.77;;;3.60;;
12429;SDS011;6279;42.192;24.326;2024-01-10T10:03:16;5.13;;;4.23;;
12429;SDS011;6279;42.192;24.326;2024-01-10T10:05:43;5.67;;;4.93;;
12429;SDS011;6279;42.192;24.326;2024-01-10T10:08:10;5.47;;;4.40;;
12429;SDS011;6279;42.192;24.326;2024-01-10T10:10:36;6.13;;;5.50;;
12429;SDS011;6279;42.192;24.326;2024-01-10T10:13:07;7.33;;;5.57;;
12429;SDS011;6279;42.192;24.326;2024-01-10T10:15:35;5.83;;;5.23;;
12429;SDS011;6279;42.192;24.326;2024-01-10T10:18:01;5.60;;;5.00;;
12429;SDS011;6279;42.192;24.326;2024-01-10T10:20:28;5.80;;;5.20;;
12429;SDS011;6279;42.192;24.326;2024-01-10T10:23:04;8.43;;;6.60;;
12429;SDS011;6279;42.192;24.326;2024-01-10T10:25:34;8.83;;;6.67;;
12429;SDS011;6279;42.192;24.326;2024-01-10T10:28:03;9.63;;;6.00;;
12429;SDS011;6279;42.192;24.326;2024-01-10T10:30:30;7.77;;;5.97;;
12429;SDS011;6279;42.192;24.326;2024-01-10T10:32:56;6.53;;;5.70;;
12429;SDS011;6279;42.192;24.326;2024-01-10T10:35:22;7.77;;;5.93;;
12429;SDS011;6279;42.192;24.326;2024-01-10T10:37:48;8.17;;;6.83;;
12429;SDS011;6279;42.192;24.326;2024-01-10T10:40:15;7.47;;;6.37;;
12429;SDS011;6279;42.192;24.326;2024-01-10T10:42:43;8.43;;;7.27;;
12429;SDS011;6279;42.192;24.326;2024-01-10T10:45:14;9.43;;;6.57;;
12429;SDS011;6279;42.192;24.326;2024-01-10T10:47:42;8.30;;;7.40;;
12429;SDS011;6279;42.192;24.326;2024-01-10T10:50:12;8.73;;;6.73;;
12429;SDS011;6279;42.192;24.326;2024-01-10T10:52:42;9.23;;;8.23;;
12429;SDS011;6279;42.192;24.326;2024-01-10T10:55:12;8.60;;;6.20;;
12429;SDS011;6279;42.192;24.326;2024-01-10T10:57:41;8.70;;;6.43;;
12429;SDS011;6279;42.192;24.326;2024-01-10T11:00:09;8.63;;;6.30;;
12429;SDS011;6279;42.192;24.326;2024-01-10T11:02:36;6.67;;;5.20;;
12429;SDS011;6279;42.192;24.326;2024-01-10T11:05:05;9.23;;;6.80;;
12429;SDS011;6279;42.192;24.326;2024-01-10T11:07:34;12.77;;;6.10;;
12429;SDS011;6279;42.192;24.326;2024-01-10T11:10:00;11.50;;;6.20;;
12429;SDS011;6279;42.192;24.326;2024-01-10T11:25:59;9.37;;;6.20;;
12429;SDS011;6279;42.192;24.326;2024-01-10T11:28:25;9.57;;;6.37;;
12429;SDS011;6279;42.192;24.326;2024-01-10T11:30:52;7.80;;;5.67;;
12429;SDS011;6279;42.192;24.326;2024-01-10T11:33:19;8.90;;;6.37;;
12429;SDS011;6279;42.192;24.326;2024-01-10T11:38:39;7.57;;;5.77;;
12429;SDS011;6279;42.192;24.326;2024-01-10T11:41:11;6.50;;;5.30;;
12429;SDS011;6279;42.192;24.326;2024-01-10T11:43:37;6.83;;;5.57;;
12429;SDS011;6279;42.192;24.326;2024-01-10T11:46:03;6.10;;;4.30;;
12429;SDS011;6279;42.192;24.326;2024-01-10T11:48:33;6.53;;;4.97;;
12429;SDS011;6279;42.192;24.326;2024-01-10T11:50:59;7.50;;;5.53;;
12429;SDS011;6279;42.192;24.326;2024-01-10T11:53:41;7.33;;;5.83;;
12429;SDS011;6279;42.192;24.326;2024-01-10T11:56:14;8.20;;;6.13;;
12429;SDS011;6279;42.192;24.326;2024-01-10T11:58:53;6.87;;;5.50;;
12429;SDS011;6279;42.192;24.326;2024-01-10T12:01:19;6.87;;;5.37;;
12429;SDS011;6279;42.192;24.326;2024-01-10T12:03:45;7.13;;;5.33;;
12429;SDS011;6279;42.192;24.326;2024-01-10T12:06:12;8.10;;;5.50;;
12429;SDS011;6279;42.192;24.326;2024-01-10T12:08:39;7.03;;;5.60;;
12429;SDS011;6279;42.192;24.326;2024-01-10T12:11:05;6.40;;;4.60;;
12429;SDS011;6279;42.192;24.326;2024-01-10T12:13:30;5.47;;;4.40;;
12429;SDS011;6279;42.192;24.326;2024-01-10T12:15:57;6.33;;;4.50;;
12429;SDS011;6279;42.192;24.326;2024-01-10T12:18:23;5.57;;;4.40;;
12429;SDS011;6279;42.192;24.326;2024-01-10T12:20:48;6.18;;;4.63;;
12429;SDS011;6279;42.192;24.326;2024-01-10T12:23:14;6.53;;;4.70;;
12429;SDS011;6279;42.192;24.326;2024-01-10T12:25:39;3.83;;;3.37;;
12429;SDS011;6279;42.192;24.326;2024-01-10T12:28:05;5.13;;;4.00;;
12429;SDS011;6279;42.192;24.326;2024-01-10T12:30:30;4.90;;;3.73;;
12429;SDS011;6279;42.192;24.326;2024-01-10T12:32:58;6.90;;;5.13;;
12429;SDS011;6279;42.192;24.326;2024-01-10T12:35:25;6.70;;;5.03;;
12429;SDS011;6279;42.192;24.326;2024-01-10T12:37:56;5.77;;;3.87;;
12429;SDS011;6279;42.192;24.326;2024-01-10T12:40:22;6.70;;;4.57;;
12429;SDS011;6279;42.192;24.326;2024-01-10T12:42:47;5.57;;;4.40;;
12429;SDS011;6279;42.192;24.326;2024-01-10T12:45:22;9.07;;;4.90;;
12429;SDS011;6279;42.192;24.326;2024-01-10T12:47:48;6.60;;;4.77;;
12429;SDS011;6279;42.192;24.326;2024-01-10T12:50:13;5.60;;;4.57;;
12429;SDS011;6279;42.192;24.326;2024-01-10T12:52:40;4.47;;;3.77;;
12429;SDS011;6279;42.192;24.326;2024-01-10T12:55:09;4.60;;;3.77;;
12429;SDS011;6279;42.192;24.326;2024-01-10T12:57:35;6.13;;;4.40;;
12429;SDS011;6279;42.192;24.326;2024-01-10T13:00:00;7.13;;;4.83;;
12429;SDS011;6279;42.192;24.326;2024-01-10T13:02:35;6.17;;;4.23;;
12429;SDS011;6279;42.192;24.326;2024-01-10T13:05:05;6.23;;;4.00;;
12429;SDS011;6279;42.192;24.326;2024-01-10T13:07:37;7.13;;;5.27;;
12429;SDS011;6279;42.192;24.326;2024-01-10T13:10:02;6.20;;;4.60;;
12429;SDS011;6279;42.192;24.326;2024-01-10T13:12:28;8.40;;;4.90;;
12429;SDS011;6279;42.192;24.326;2024-01-10T13:14:53;7.20;;;4.90;;
12429;SDS011;6279;42.192;24.326;2024-01-10T13:17:19;6.57;;;4.50;;
12429;SDS011;6279;42.192;24.326;2024-01-10T13:19:45;6.03;;;4.57;;
12429;SDS011;6279;42.192;24.326;2024-01-10T13:22:13;8.63;;;5.07;;
12429;SDS011;6279;42.192;24.326;2024-01-10T13:24:42;12.53;;;6.10;;
12429;SDS011;6279;42.192;24.326;2024-01-10T13:27:07;8.40;;;5.03;;
12429;SDS011;6279;42.192;24.326;2024-01-10T13:29:35;7.30;;;5.70;;
12429;SDS011;6279;42.192;24.326;2024-01-10T13:32:02;7.53;;;5.50;;
12429;SDS011;6279;42.192;24.326;2024-01-10T13:34:28;7.07;;;4.93;;
12429;SDS011;6279;42.192;24.326;2024-01-10T13:36:53;7.67;;;5.17;;
12429;SDS011;6279;42.192;24.326;2024-01-10T13:39:19;7.87;;;5.67;;
12429;SDS011;6279;42.192;24.326;2024-01-10T13:41:44;6.33;;;4.77;;
12429;SDS011;6279;42.192;24.326;2024-01-10T13:44:10;9.80;;;6.37;;
12429;SDS011;6279;42.192;24.326;2024-01-10T13:46:35;7.87;;;5.33;;
12429;SDS011;6279;42.192;24.326;2024-01-10T13:49:00;8.03;;;6.07;;
12429;SDS011;6279;42.192;24.326;2024-01-10T13:51:26;9.03;;;6.07;;
12429;SDS011;6279;42.192;24.326;2024-01-10T13:53:52;10.83;;;6.90;;
12429;SDS011;6279;42.192;24.326;2024-01-10T13:56:18;9.20;;;6.70;;
12429;SDS011;6279;42.192;24.326;2024-01-10T13:58:44;10.07;;;6.23;;
12429;SDS011;6279;42.192;24.326;2024-01-10T14:01:09;10.40;;;5.90;;
12429;SDS011;6279;42.192;24.326;2024-01-10T14:03:34;8.90;;;5.70;;
12429;SDS011;6279;42.192;24.326;2024-01-10T14:06:01;9.33;;;6.30;;
12429;SDS011;6279;42.192;24.326;2024-01-10T14:08:26;8.33;;;6.07;;
12429;SDS011;6279;42.192;24.326;2024-01-10T14:10:52;11.20;;;6.60;;
12429;SDS011;6279;42.192;24.326;2024-01-10T14:13:18;10.87;;;6.90;;
12429;SDS011;6279;42.192;24.326;2024-01-10T14:15:44;11.63;;;6.63;;
12429;SDS011;6279;42.192;24.326;2024-01-10T14:18:10;11.20;;;7.27;;
12429;SDS011;6279;42.192;24.326;2024-01-10T14:20:35;9.80;;;6.20;;
12429;SDS011;6279;42.192;24.326;2024-01-10T14:23:01;13.77;;;5.93;;
12429;SDS011;6279;42.192;24.326;2024-01-10T14:25:26;11.37;;;5.93;;
12429;SDS011;6279;42.192;24.326;2024-01-10T14:27:51;6.63;;;4.80;;
12429;SDS011;6279;42.192;24.326;2024-01-10T14:30:17;7.93;;;4.83;;
12429;SDS011;6279;42.192;24.326;2024-01-10T14:32:44;8.80;;;5.37;;
12429;SDS011;6279;42.192;24.326;2024-01-10T14:35:12;9.50;;;5.87;;
12429;SDS011;6279;42.192;24.326;2024-01-10T14:37:38;10.13;;;7.70;;
12429;SDS011;6279;42.192;24.326;2024-01-10T14:40:04;12.30;;;7.27;;
12429;SDS011;6279;42.192;24.326;2024-01-10T14:42:31;12.37;;;6.33;;
12429;SDS011;6279;42.192;24.326;2024-01-10T14:44:58;9.13;;;6.40;;
12429;SDS011;6279;42.192;24.326;2024-01-10T14:47:24;13.80;;;7.37;;
12429;SDS011;6279;42.192;24.326;2024-01-10T14:49:50;19.43;;;6.33;;
12429;SDS011;6279;42.192;24.326;2024-01-10T14:52:15;10.60;;;6.67;;